Array
(
    [0] => p
    [1] => Events
)
বাংলা English

 Rain/Thunder showers accompanied by temporary gusty/ squally wind is likely to occur at many places over the country, with hails at isolated places.   **Phone. +880 29135742, 912383

Events

 VGHS 140300Z 00000KT 4000 HZ FEW015 SCT100 27/19 Q1013 NO SIG=